createdAt,value
2023-02-09T00:00:20.659Z,100.00
2023-02-09T00:02:49.788Z,100.00
2023-02-09T00:05:20.852Z,100.00
2023-02-09T00:07:51.750Z,100.00
2023-02-09T00:10:20.949Z,100.00
2023-02-09T00:13:07.163Z,100.00
2023-02-09T00:15:37.520Z,100.00
2023-02-09T00:18:06.581Z,100.00
2023-02-09T00:20:35.726Z,100.00
2023-02-09T00:23:06.207Z,100.00
2023-02-09T00:25:36.956Z,100.00
2023-02-09T00:28:06.731Z,100.00
2023-02-09T00:30:36.373Z,100.00
2023-02-09T00:33:06.194Z,100.00
2023-02-09T00:35:36.013Z,100.00
2023-02-09T00:38:06.398Z,100.00
2023-02-09T00:40:35.543Z,100.00
2023-02-09T00:43:04.560Z,100.00
2023-02-09T00:45:34.969Z,100.00
2023-02-09T00:48:04.745Z,100.00
2023-02-09T00:50:33.883Z,100.00
2023-02-09T00:53:02.873Z,100.00
2023-02-09T00:55:33.515Z,100.00
2023-02-09T00:58:02.737Z,100.00
2023-02-09T01:00:31.724Z,100.00
2023-02-09T01:03:00.719Z,100.00
2023-02-09T01:05:30.263Z,100.00
2023-02-09T01:07:59.233Z,100.00
2023-02-09T01:10:28.130Z,100.00
2023-02-09T01:12:58.481Z,100.00
2023-02-09T01:15:29.529Z,100.00
2023-02-09T01:18:00.111Z,100.00
2023-02-09T01:20:29.697Z,100.00
2023-02-09T01:22:58.718Z,100.00
2023-02-09T01:25:27.809Z,100.00
2023-02-09T01:27:58.316Z,100.00
2023-02-09T01:30:27.892Z,100.00
2023-02-09T01:32:57.483Z,100.00
2023-02-09T01:35:26.898Z,100.00
2023-02-09T01:37:55.876Z,100.00
2023-02-09T01:40:24.986Z,100.00
2023-02-09T01:42:53.897Z,100.00
2023-02-09T01:45:31.311Z,100.00
2023-02-09T01:48:03.733Z,100.00
2023-02-09T01:50:36.790Z,100.00
2023-02-09T01:53:05.929Z,100.00
2023-02-09T01:55:39.101Z,100.00
2023-02-09T01:58:13.562Z,100.00
2023-02-09T02:00:45.486Z,100.00
2023-02-09T02:03:18.872Z,100.00
2023-02-09T02:05:53.165Z,100.00
2023-02-09T02:08:28.982Z,100.00
2023-02-09T02:10:59.340Z,100.00
2023-02-09T02:13:28.790Z,100.00
2023-02-09T02:16:05.429Z,100.00
2023-02-09T02:19:01.870Z,100.00
2023-02-09T02:22:18.899Z,100.00
2023-02-09T02:25:22.603Z,100.00
2023-02-09T02:28:07.303Z,100.00
2023-02-09T02:30:45.238Z,100.00
2023-02-09T02:33:26.301Z,100.00
2023-02-09T02:36:00.137Z,100.00
2023-02-09T02:38:36.978Z,100.00
2023-02-09T02:41:15.419Z,100.00
2023-02-09T02:43:56.014Z,100.00
2023-02-09T02:46:31.564Z,100.00
2023-02-09T02:49:06.975Z,100.00
2023-02-09T02:51:40.472Z,100.00
2023-02-09T02:54:15.038Z,100.00
2023-02-09T02:56:49.313Z,100.00
2023-02-09T02:59:22.559Z,100.00
2023-02-09T03:01:57.513Z,100.00
2023-02-09T03:04:32.073Z,100.00
2023-02-09T03:07:02.235Z,100.00
2023-02-09T03:09:31.365Z,100.00
2023-02-09T03:12:14.490Z,100.00
2023-02-09T03:14:48.480Z,100.00
2023-02-09T03:17:28.744Z,100.00
2023-02-09T03:20:07.265Z,100.00
2023-02-09T03:22:39.283Z,100.00
2023-02-09T03:25:14.073Z,100.00
2023-02-09T03:27:46.945Z,100.00
2023-02-09T03:30:19.043Z,100.00
2023-02-09T03:32:49.458Z,100.00
2023-02-09T03:35:22.025Z,100.00
2023-02-09T03:37:51.781Z,100.00
2023-02-09T03:40:21.581Z,100.00
2023-02-09T03:42:51.741Z,100.00
2023-02-09T03:45:20.898Z,100.00
2023-02-09T03:47:50.141Z,100.00
2023-02-09T03:50:21.065Z,100.00
2023-02-09T03:52:50.978Z,100.00
2023-02-09T03:55:21.979Z,100.00
2023-02-09T03:57:51.304Z,100.00
2023-02-09T04:00:21.131Z,100.00
2023-02-09T04:02:51.054Z,100.00
2023-02-09T04:05:23.264Z,100.00
2023-02-09T04:07:52.767Z,100.00
2023-02-09T04:10:22.087Z,100.00
2023-02-09T04:12:51.909Z,100.00
2023-02-09T04:15:21.170Z,100.00
2023-02-09T04:17:51.566Z,100.00
2023-02-09T04:20:23.298Z,100.00
2023-02-09T04:22:52.658Z,100.00
2023-02-09T04:25:21.864Z,100.00
2023-02-09T04:27:51.220Z,100.00
2023-02-09T04:30:21.617Z,100.00
2023-02-09T04:32:50.815Z,100.00
2023-02-09T04:35:20.081Z,100.00
2023-02-09T04:37:51.191Z,100.00
2023-02-09T04:40:21.408Z,100.00
2023-02-09T04:42:50.752Z,100.00
2023-02-09T04:45:21.711Z,100.00
2023-02-09T04:47:50.931Z,100.00
2023-02-09T04:50:20.562Z,100.00
2023-02-09T04:52:51.876Z,100.00
2023-02-09T04:55:21.102Z,100.00
2023-02-09T04:58:07.868Z,100.00
2023-02-09T05:00:37.639Z,100.00
2023-02-09T05:03:07.470Z,100.00
2023-02-09T05:05:40.287Z,100.00
2023-02-09T05:08:12.066Z,100.00
2023-02-09T05:10:41.957Z,100.00
2023-02-09T05:13:11.285Z,100.00
2023-02-09T05:15:40.518Z,100.00
2023-02-09T05:18:09.735Z,100.00
2023-02-09T05:20:39.341Z,100.00
2023-02-09T05:23:11.958Z,100.00
2023-02-09T05:25:41.456Z,100.00
2023-02-09T05:28:10.998Z,100.00
2023-02-09T05:30:40.635Z,100.00
2023-02-09T05:33:11.224Z,100.00
2023-02-09T05:35:40.413Z,100.00
2023-02-09T05:38:11.702Z,100.00
2023-02-09T05:40:41.238Z,100.00
2023-02-09T05:43:10.668Z,100.00
2023-02-09T05:45:40.027Z,100.00
2023-02-09T05:48:09.364Z,100.00
2023-02-09T05:50:40.004Z,100.00
2023-02-09T05:53:10.895Z,100.00
2023-02-09T05:55:43.776Z,100.00
2023-02-09T05:58:13.139Z,100.00
2023-02-09T06:00:43.178Z,100.00
2023-02-09T06:03:12.691Z,100.00
2023-02-09T06:05:42.163Z,100.00
2023-02-09T06:08:12.927Z,100.00
2023-02-09T06:10:42.191Z,100.00
2023-02-09T06:13:11.718Z,100.00
2023-02-09T06:15:44.144Z,100.00
2023-02-09T06:18:13.217Z,100.00
2023-02-09T06:20:43.087Z,100.00
2023-02-09T06:23:13.978Z,100.00
2023-02-09T06:25:44.017Z,100.00
2023-02-09T06:28:13.271Z,100.00
2023-02-09T06:30:42.819Z,100.00
2023-02-09T06:33:11.899Z,100.00
2023-02-09T06:35:41.308Z,100.00
2023-02-09T06:38:10.769Z,100.00
2023-02-09T06:40:41.529Z,100.00
2023-02-09T06:43:10.827Z,100.00
2023-02-09T06:45:41.379Z,100.00
2023-02-09T06:48:11.534Z,100.00
2023-02-09T06:50:41.208Z,100.00
2023-02-09T06:53:10.648Z,100.00
2023-02-09T06:55:41.468Z,100.00
2023-02-09T06:58:11.896Z,100.00
2023-02-09T07:00:41.222Z,100.00
2023-02-09T07:03:11.515Z,100.00
2023-02-09T07:05:41.516Z,100.00
2023-02-09T07:08:10.813Z,100.00
2023-02-09T07:10:42.500Z,100.00
2023-02-09T07:13:13.474Z,100.00
2023-02-09T07:15:44.307Z,100.00
2023-02-09T07:18:13.799Z,99.79
2023-02-09T07:20:43.882Z,97.89
2023-02-09T07:23:13.185Z,97.40
2023-02-09T07:25:43.886Z,94.29
2023-02-09T07:28:13.239Z,94.38
2023-02-09T07:30:42.605Z,94.90
2023-02-09T07:33:12.649Z,95.19
2023-02-09T07:35:42.803Z,94.72
2023-02-09T07:38:12.352Z,95.12
2023-02-09T07:40:47.011Z,95.36
2023-02-09T07:43:17.130Z,95.11
2023-02-09T07:45:46.813Z,95.62
2023-02-09T07:48:16.360Z,93.30
2023-02-09T07:50:50.765Z,94.29
2023-02-09T07:53:20.215Z,94.54
2023-02-09T07:55:50.830Z,95.79
2023-02-09T07:58:21.360Z,95.42
2023-02-09T08:00:51.689Z,94.23
2023-02-09T08:03:24.385Z,94.70
2023-02-09T08:06:00.327Z,95.24
2023-02-09T08:08:38.836Z,92.77
2023-02-09T08:11:10.490Z,94.99
2023-02-09T08:13:41.953Z,92.54
2023-02-09T08:16:15.021Z,91.91
2023-02-09T08:18:49.173Z,91.85
2023-02-09T08:21:20.536Z,89.65
2023-02-09T08:23:54.793Z,88.27
2023-02-09T08:26:25.096Z,89.42
2023-02-09T08:28:55.052Z,88.30
2023-02-09T08:31:24.476Z,85.52
2023-02-09T08:33:54.573Z,88.12
2023-02-09T08:36:24.565Z,88.76
2023-02-09T08:38:54.467Z,88.52
2023-02-09T08:41:25.336Z,86.23
2023-02-09T08:43:54.601Z,87.90
2023-02-09T08:46:24.222Z,86.48
2023-02-09T08:48:54.464Z,86.71
2023-02-09T08:51:24.381Z,85.56
2023-02-09T08:53:53.762Z,85.04
2023-02-09T08:56:25.279Z,84.26
2023-02-09T08:58:54.488Z,84.10
2023-02-09T09:01:24.359Z,83.58
2023-02-09T09:03:53.819Z,80.61
2023-02-09T09:06:23.735Z,80.00
2023-02-09T09:08:53.460Z,78.54
2023-02-09T09:11:22.861Z,77.90
2023-02-09T09:13:53.706Z,77.23
2023-02-09T09:16:25.011Z,74.47
2023-02-09T09:18:54.233Z,77.37
2023-02-09T09:21:23.407Z,73.67
2023-02-09T09:23:53.211Z,71.61
2023-02-09T09:26:22.916Z,73.67
2023-02-09T09:28:54.211Z,75.80
2023-02-09T09:31:24.316Z,74.08
2023-02-09T09:33:53.574Z,72.36
2023-02-09T09:36:23.181Z,69.25
2023-02-09T09:38:54.160Z,71.22
2023-02-09T09:41:30.181Z,70.00
2023-02-09T09:44:05.737Z,73.13
2023-02-09T09:46:38.233Z,72.66
2023-02-09T09:49:08.532Z,71.73
2023-02-09T09:51:44.732Z,70.37
2023-02-09T09:54:17.894Z,72.09
2023-02-09T09:56:47.305Z,68.89
2023-02-09T09:59:23.367Z,69.19
2023-02-09T10:01:55.075Z,66.43
2023-02-09T10:04:24.557Z,65.12
2023-02-09T10:07:00.699Z,63.60
2023-02-09T10:09:42.648Z,63.05
2023-02-09T10:12:24.644Z,63.42
2023-02-09T10:14:55.341Z,61.84
2023-02-09T10:17:25.244Z,61.88
2023-02-09T10:20:06.036Z,62.22
2023-02-09T10:22:35.990Z,63.60
2023-02-09T10:25:26.401Z,62.97
2023-02-09T10:27:56.916Z,62.61
2023-02-09T10:30:30.901Z,63.12
2023-02-09T10:33:02.116Z,61.04
2023-02-09T10:35:47.635Z,59.07
2023-02-09T10:38:19.971Z,60.03
2023-02-09T10:40:50.820Z,60.23
2023-02-09T10:43:27.500Z,58.71
2023-02-09T10:46:01.768Z,57.80
2023-02-09T10:48:42.319Z,59.93
2023-02-09T10:51:16.858Z,57.30
2023-02-09T10:54:02.803Z,55.60
2023-02-09T10:56:45.024Z,56.68
2023-02-09T10:59:19.057Z,55.93
2023-02-09T11:01:58.524Z,53.51
2023-02-09T11:04:31.603Z,56.66
2023-02-09T11:07:01.838Z,57.93
2023-02-09T11:09:34.946Z,58.46
2023-02-09T11:12:03.979Z,55.50
2023-02-09T11:14:33.655Z,53.29
2023-02-09T11:17:17.872Z,52.34
2023-02-09T11:20:12.298Z,49.52
2023-02-09T11:23:00.931Z,48.24
2023-02-09T11:25:34.595Z,50.79
2023-02-09T11:28:25.234Z,51.31
2023-02-09T11:31:22.239Z,47.70
2023-02-09T11:34:02.249Z,49.55
2023-02-09T11:36:47.328Z,50.63
2023-02-09T11:39:23.502Z,49.72
2023-02-09T11:42:18.291Z,51.17
2023-02-09T11:44:55.300Z,50.92
2023-02-09T11:47:30.779Z,49.23
2023-02-09T11:50:07.779Z,50.10
2023-02-09T11:52:42.022Z,50.24
2023-02-09T11:55:29.981Z,51.12
2023-02-09T11:58:10.726Z,51.70
2023-02-09T12:00:57.729Z,50.75
2023-02-09T12:03:31.135Z,52.87
2023-02-09T12:06:03.064Z,52.68
2023-02-09T12:08:48.189Z,51.92
2023-02-09T12:11:30.302Z,52.81
2023-02-09T12:14:17.668Z,53.97
2023-02-09T12:16:56.430Z,54.15
2023-02-09T12:19:33.713Z,52.07
2023-02-09T12:22:36.325Z,53.95
2023-02-09T12:25:19.034Z,54.90
2023-02-09T12:28:11.294Z,54.69
2023-02-09T12:31:04.185Z,56.99
2023-02-09T12:33:36.151Z,57.24
2023-02-09T12:36:25.749Z,58.86
2023-02-09T12:39:05.563Z,60.04
2023-02-09T12:42:08.434Z,58.83
2023-02-09T12:44:40.804Z,57.90
2023-02-09T12:47:41.912Z,58.70
2023-02-09T12:50:32.608Z,58.42
2023-02-09T12:53:44.230Z,57.90
2023-02-09T12:56:33.499Z,59.22
2023-02-09T12:59:20.956Z,58.44
2023-02-09T13:02:18.404Z,60.46
2023-02-09T13:05:01.419Z,60.42
2023-02-09T13:07:50.695Z,58.50
2023-02-09T13:10:29.360Z,58.36
2023-02-09T13:13:07.242Z,59.21
2023-02-09T13:15:53.592Z,59.71
2023-02-09T13:18:30.141Z,58.30
2023-02-09T13:21:17.014Z,58.49
2023-02-09T13:24:01.958Z,57.69
2023-02-09T13:26:34.256Z,56.42
2023-02-09T13:29:20.833Z,52.82
2023-02-09T13:32:03.303Z,52.84
2023-02-09T13:34:37.287Z,51.94
2023-02-09T13:37:25.967Z,53.74
2023-02-09T13:40:01.652Z,52.79
2023-02-09T13:42:37.923Z,54.98
2023-02-09T13:45:19.747Z,55.00
2023-02-09T13:47:49.458Z,54.47
2023-02-09T13:50:20.326Z,56.74
2023-02-09T13:52:54.722Z,56.50
2023-02-09T13:55:29.108Z,56.50
2023-02-09T13:58:02.108Z,57.27
2023-02-09T14:00:33.365Z,57.55
2023-02-09T14:03:12.586Z,58.15
2023-02-09T14:05:45.829Z,58.55
2023-02-09T14:11:41.060Z,58.07
2023-02-09T14:14:16.273Z,58.23
2023-02-09T14:16:53.333Z,58.90
2023-02-09T14:19:28.465Z,59.17
2023-02-09T14:21:57.942Z,59.62
2023-02-09T14:24:29.792Z,59.80
2023-02-09T14:27:05.070Z,58.83
2023-02-09T14:29:37.585Z,59.10
2023-02-09T14:32:32.320Z,60.03
2023-02-09T14:35:18.223Z,60.38
2023-02-09T14:37:50.692Z,60.54
2023-02-09T14:40:30.219Z,59.46
2023-02-09T14:43:04.337Z,59.72
2023-02-09T14:45:40.073Z,61.02
2023-02-09T14:48:20.215Z,63.46
2023-02-09T14:50:50.912Z,62.19
2023-02-09T14:53:20.711Z,62.02
2023-02-09T14:55:51.495Z,62.06
2023-02-09T14:58:27.751Z,64.74
2023-02-09T15:00:59.097Z,66.68
2023-02-09T15:03:28.710Z,67.35
2023-02-09T15:06:00.806Z,69.17
2023-02-09T15:08:33.564Z,70.56
2023-02-09T15:11:26.756Z,70.51
2023-02-09T15:14:04.280Z,73.34
2023-02-09T15:16:34.454Z,73.05
2023-02-09T15:19:05.702Z,74.22
2023-02-09T15:21:35.592Z,74.71
2023-02-09T15:24:04.777Z,75.43
2023-02-09T15:26:38.174Z,75.58
2023-02-09T15:29:13.500Z,75.42
2023-02-09T15:31:43.155Z,76.43
2023-02-09T15:34:14.709Z,77.21
2023-02-09T15:36:45.192Z,77.02
2023-02-09T15:39:21.044Z,77.34
2023-02-09T15:42:09.247Z,77.84
2023-02-09T15:44:55.971Z,78.65
2023-02-09T15:47:42.561Z,80.36
2023-02-09T15:50:11.760Z,80.05
2023-02-09T15:52:40.828Z,80.06
2023-02-09T15:55:13.376Z,80.59
2023-02-09T15:57:45.394Z,79.43
2023-02-09T16:00:19.940Z,80.17
2023-02-09T16:02:51.291Z,79.17
2023-02-09T16:05:21.109Z,80.95
2023-02-09T16:07:52.108Z,80.35
2023-02-09T16:10:25.494Z,80.16
2023-02-09T16:12:57.271Z,80.78
2023-02-09T16:15:28.198Z,81.07
2023-02-09T16:17:57.936Z,81.37
2023-02-09T16:20:27.323Z,81.08
2023-02-09T16:23:11.703Z,80.88
2023-02-09T16:25:49.108Z,81.28
2023-02-09T16:28:21.090Z,81.87
2023-02-09T16:30:52.718Z,80.76
2023-02-09T16:33:23.810Z,80.87
2023-02-09T16:35:57.069Z,82.99
2023-02-09T16:38:27.679Z,83.83
2023-02-09T16:40:57.604Z,83.45
2023-02-09T16:43:28.908Z,82.34
2023-02-09T16:46:03.600Z,84.43
2023-02-09T16:48:35.929Z,85.26
2023-02-09T16:51:06.050Z,84.83
2023-02-09T16:53:39.705Z,87.30
2023-02-09T16:56:10.454Z,87.64
2023-02-09T16:58:41.228Z,87.61
2023-02-09T17:01:17.097Z,90.28
2023-02-09T17:03:49.653Z,92.19
2023-02-09T17:06:20.369Z,93.46
2023-02-09T17:08:50.190Z,94.59
2023-02-09T17:11:21.032Z,95.97
2023-02-09T17:13:51.886Z,97.09
2023-02-09T17:16:24.804Z,97.66
2023-02-09T17:18:56.743Z,97.92
2023-02-09T17:21:28.811Z,99.15
2023-02-09T17:23:58.824Z,98.57
2023-02-09T17:26:28.404Z,98.93
2023-02-09T17:28:58.887Z,98.42
2023-02-09T17:31:43.826Z,97.71
2023-02-09T17:34:20.793Z,97.30
2023-02-09T17:36:50.009Z,96.69
2023-02-09T17:39:21.311Z,96.07
2023-02-09T17:41:50.848Z,96.62
2023-02-09T17:44:43.393Z,97.42
2023-02-09T17:47:17.724Z,96.34
2023-02-09T17:49:47.762Z,95.96
2023-02-09T17:52:18.669Z,96.26
2023-02-09T17:54:49.557Z,95.77
2023-02-09T17:57:21.242Z,95.88
2023-02-09T17:59:51.941Z,95.17
2023-02-09T18:02:21.487Z,97.23
2023-02-09T18:04:50.798Z,98.78
2023-02-09T18:07:20.702Z,97.54
2023-02-09T18:09:50.055Z,97.86
2023-02-09T18:12:21.871Z,100.00
2023-02-09T18:14:52.444Z,99.13
2023-02-09T18:17:21.853Z,99.81
2023-02-09T18:19:51.048Z,100.00
2023-02-09T18:22:20.408Z,100.00
2023-02-09T18:24:51.473Z,100.00
2023-02-09T18:27:23.328Z,100.00
2023-02-09T18:29:54.030Z,100.00
2023-02-09T18:32:24.196Z,100.00
2023-02-09T18:34:54.072Z,100.00
2023-02-09T18:37:23.921Z,100.00
2023-02-09T18:39:52.945Z,100.00
2023-02-09T18:42:22.088Z,100.00
2023-02-09T18:44:51.137Z,100.00
2023-02-09T18:47:21.984Z,100.00
2023-02-09T18:49:51.830Z,100.00
2023-02-09T18:52:24.752Z,100.00
2023-02-09T18:54:53.624Z,100.00
2023-02-09T18:57:22.734Z,100.00
2023-02-09T18:59:52.151Z,100.00
2023-02-09T19:02:23.792Z,100.00
2023-02-09T19:04:53.104Z,100.00
2023-02-09T19:07:22.708Z,100.00
2023-02-09T19:09:52.276Z,100.00
2023-02-09T19:12:21.651Z,100.00
2023-02-09T19:14:52.598Z,100.00
2023-02-09T19:17:23.920Z,100.00
2023-02-09T19:19:53.627Z,100.00
2023-02-09T19:22:23.424Z,100.00
2023-02-09T19:24:56.310Z,100.00
2023-02-09T19:27:27.041Z,100.00
2023-02-09T19:29:56.880Z,100.00
2023-02-09T19:32:28.350Z,100.00
2023-02-09T19:34:57.488Z,100.00
2023-02-09T19:37:26.461Z,100.00
2023-02-09T19:40:05.432Z,100.00
2023-02-09T19:42:34.889Z,100.00
2023-02-09T19:45:04.206Z,100.00
2023-02-09T19:47:35.190Z,100.00
2023-02-09T19:50:05.271Z,100.00
2023-02-09T19:52:37.549Z,100.00
2023-02-09T19:55:08.318Z,100.00
2023-02-09T19:57:37.583Z,100.00
2023-02-09T20:00:07.420Z,100.00
2023-02-09T20:02:39.109Z,100.00
2023-02-09T20:05:09.304Z,100.00
2023-02-09T20:07:39.986Z,100.00
2023-02-09T20:10:09.708Z,100.00
2023-02-09T20:12:38.875Z,100.00
2023-02-09T20:15:09.054Z,100.00
2023-02-09T20:17:39.628Z,100.00
2023-02-09T20:20:10.806Z,100.00
2023-02-09T20:22:39.963Z,100.00
2023-02-09T20:25:10.140Z,100.00
2023-02-09T20:27:39.168Z,100.00
2023-02-09T20:30:11.048Z,100.00
2023-02-09T20:32:41.685Z,100.00
2023-02-09T20:35:13.063Z,100.00
2023-02-09T20:37:42.422Z,100.00
2023-02-09T20:40:13.915Z,100.00
2023-02-09T20:43:02.321Z,100.00
2023-02-09T20:45:48.710Z,100.00
2023-02-09T20:48:19.852Z,100.00
2023-02-09T20:50:49.399Z,100.00
2023-02-09T20:53:21.221Z,100.00
2023-02-09T20:55:50.701Z,100.00
2023-02-09T20:58:20.357Z,100.00
2023-02-09T21:00:51.827Z,100.00
2023-02-09T21:03:22.588Z,100.00
2023-02-09T21:05:52.262Z,100.00
2023-02-09T21:08:22.762Z,100.00
2023-02-09T21:10:57.147Z,100.00
2023-02-09T21:13:26.357Z,100.00
2023-02-09T21:15:55.577Z,100.00
2023-02-09T21:18:27.990Z,100.00
2023-02-09T21:20:59.699Z,100.00
2023-02-09T21:23:30.501Z,100.00
2023-02-09T21:26:03.850Z,100.00
2023-02-09T21:28:33.564Z,100.00
2023-02-09T21:31:03.519Z,100.00
2023-02-09T21:33:37.395Z,100.00
2023-02-09T21:36:07.363Z,100.00
2023-02-09T21:38:41.882Z,100.00
2023-02-09T21:41:33.131Z,100.00
2023-02-09T21:44:03.130Z,100.00
2023-02-09T21:46:32.387Z,100.00
2023-02-09T21:49:02.904Z,100.00
2023-02-09T21:51:32.114Z,100.00
2023-02-09T21:54:01.194Z,100.00
2023-02-09T21:56:30.596Z,100.00
2023-02-09T21:58:59.596Z,100.00
2023-02-09T22:01:32.051Z,100.00
2023-02-09T22:04:03.010Z,100.00
2023-02-09T22:06:32.523Z,100.00
2023-02-09T22:09:03.839Z,100.00
2023-02-09T22:11:33.996Z,100.00
2023-02-09T22:14:03.136Z,100.00
2023-02-09T22:16:32.593Z,100.00
2023-02-09T22:19:03.149Z,100.00
2023-02-09T22:21:32.360Z,100.00
2023-02-09T22:24:01.474Z,100.00
2023-02-09T22:26:31.297Z,100.00
2023-02-09T22:29:00.943Z,100.00
2023-02-09T22:31:32.272Z,100.00
2023-02-09T22:34:03.892Z,100.00
2023-02-09T22:36:32.990Z,100.00
2023-02-09T22:39:02.932Z,100.00
2023-02-09T22:41:32.405Z,100.00
2023-02-09T22:44:03.140Z,100.00
2023-02-09T22:46:34.598Z,100.00
2023-02-09T22:49:08.056Z,100.00
2023-02-09T22:51:38.097Z,100.00
2023-02-09T22:54:08.181Z,100.00
2023-02-09T22:56:37.110Z,100.00
2023-02-09T22:59:06.729Z,100.00
2023-02-09T23:01:35.961Z,100.00
2023-02-09T23:04:06.756Z,100.00
2023-02-09T23:06:36.496Z,100.00
2023-02-09T23:09:09.548Z,100.00
2023-02-09T23:11:38.791Z,100.00
2023-02-09T23:14:10.653Z,100.00
2023-02-09T23:16:41.783Z,100.00
2023-02-09T23:19:14.156Z,100.00
2023-02-09T23:21:45.471Z,100.00
2023-02-09T23:24:15.658Z,100.00
2023-02-09T23:26:44.940Z,100.00
2023-02-09T23:29:16.490Z,100.00
2023-02-09T23:31:46.573Z,100.00
2023-02-09T23:34:20.134Z,100.00
2023-02-09T23:36:50.105Z,100.00
2023-02-09T23:39:22.528Z,100.00
2023-02-09T23:41:52.913Z,100.00
2023-02-09T23:44:22.088Z,100.00
2023-02-09T23:46:51.050Z,100.00
2023-02-09T23:49:22.900Z,100.00
2023-02-09T23:51:52.023Z,100.00
2023-02-09T23:54:21.833Z,100.00
2023-02-09T23:56:52.608Z,100.00
2023-02-09T23:59:21.652Z,100.00
